Date,TemperatureHighF,TemperatureAvgF,TemperatureLowF,DewpointHighF,DewpointAvgF,DewpointLowF,HumidityHigh,HumidityAvg,HumidityLow,PressureMaxIn,PressureMinIn,WindSpeedMaxMPH,WindSpeedAvgMPH,GustSpeedMaxMPH,PrecipitationSumIn
2013-1-1,51,49,44,51,43,32,100,84,54,30.14,29.96,7,1,15,0.27
2013-1-2,50,47,44,50,46,42,100,96,82,30.16,29.93,6,0,16,0.28
2013-1-3,45,42,35,44,41,34,100,96,85,30.27,30.12,7,2,10,0.19
2013-1-4,51,39,31,35,30,23,100,73,41,30.36,30.19,7,1,14,0.01
2013-1-5,51,40,30,36,28,23,79,62,38,30.41,30.27,5,1,10,0.00
2013-1-6,52,45,40,45,41,35,100,87,68,30.27,30.08,9,1,15,0.02
2013-1-7,52,43,36,36,34,31,92,71,48,30.42,30.23,7,2,13,0.02
2013-1-8,57,46,33,48,40,33,100,80,58,30.45,30.33,7,0,11,0.00
2013-1-9,69,55,42,53,48,41,99,80,55,30.45,30.35,6,1,10,0.00
2013-1-10,67,59,52,55,50,43,100,75,45,30.49,30.37,9,2,14,0.00
2013-1-11,55,49,46,53,49,46,100,99,81,30.37,30.14,5,0,9,0.01
2013-1-12,74,61,48,67,58,48,100,93,70,30.15,30.08,6,0,12,0.01
2013-1-13,73,65,59,65,62,59,100,91,69,30.13,30.04,11,2,18,0.00
2013-1-14,69,64,61,67,64,60,100,98,93,30.13,30.05,5,1,10,0.01
2013-1-15,64,50,45,64,50,44,100,100,99,30.18,30.05,9,0,16,0.01
2013-1-16,50,46,43,50,46,43,100,100,100,30.06,29.96,0,0,8,0.08
2013-1-17,52,47,33,52,47,33,100,100,100,30.16,29.77,15,1,32,0.18
2013-1-18,47,38,31,37,32,26,100,81,46,30.51,30.16,9,2,16,1.74
2013-1-19,54,40,28,36,31,27,97,72,42,30.49,30.19,6,1,10,0.13
2013-1-20,64,50,39,41,34,30,76,56,33,30.19,30.03,8,2,13,0.00
2013-1-21,60,47,34,37,32,22,93,59,32,30.11,29.88,8,1,20,0.00
2013-1-22,43,37,29,24,14,4,65,40,19,30.26,29.99,10,3,19,0.00
2013-1-23,44,33,24,29,17,9,72,51,35,30.37,30.06,5,1,11,0.00
2013-1-24,47,37,26,37,22,9,94,59,31,30.48,29.99,14,4,25,0.00
2013-1-25,27,25,22,27,18,10,100,77,48,30.52,30.14,3,0,10,0.01
2013-1-26,44,32,26,39,31,26,100,96,66,30.37,30.12,7,1,11,0.01
2013-1-27,44,36,27,33,30,26,100,81,59,30.60,30.37,7,1,11,0.01
2013-1-28,50,42,33,50,39,31,100,91,73,30.53,30.25,6,1,12,0.02
2013-1-29,73,58,42,62,54,42,100,90,60,30.25,30.04,7,2,13,0.02
2013-1-30,74,66,54,68,63,53,100,92,65,30.05,29.44,11,4,30,0.01
2013-1-31,53,46,37,53,29,24,99,53,34,30.01,29.54,12,3,27,1.03
2013-2-1,42,38,28,31,18,9,66,45,26,30.36,29.91,12,2,27,0.02
2013-2-2,47,35,23,39,19,12,93,54,31,30.40,30.03,4,0,12,0.00
2013-2-3,55,43,36,39,32,26,100,69,37,30.04,29.87,7,1,20,0.00
2013-2-4,49,39,29,31,28,25,91,66,46,30.17,29.99,4,0,10,0.00
2013-2-5,65,50,36,44,37,31,88,63,39,30.01,29.85,10,1,22,0.00
2013-2-6,65,52,40,46,34,26,100,57,24,30.22,29.97,8,2,13,0.00
2013-2-7,48,43,40,44,38,28,100,85,46,30.28,29.97,9,3,16,0.37
2013-2-8,61,46,38,49,41,32,100,83,53,30.09,29.83,11,2,21,0.38
2013-2-9,58,44,31,33,28,20,95,58,23,30.34,30.09,7,1,11,0.15
2013-2-10,57,46,35,48,30,23,100,57,29,30.47,30.21,5,0,13,0.12
2013-2-11,62,57,48,62,57,48,100,99,97,30.21,29.91,3,0,21,0.12
2013-2-12,61,53,45,54,42,30,100,70,31,30.10,29.90,5,0,11,0.09
2013-2-13,49,46,41,49,46,40,100,100,96,29.93,29.63,4,0,8,0.05
2013-2-14,53,42,34,42,37,33,100,84,52,30.06,29.85,6,1,11,0.11
2013-2-15,63,49,35,43,37,31,100,69,32,30.10,29.90,7,1,17,0.00
2013-2-16,47,37,28,40,35,27,100,94,76,29.98,29.82,7,0,18,0.21
2013-2-17,43,32,23,26,20,14,98,65,32,30.30,29.98,13,2,33,0.21
2013-2-18,54,39,24,32,25,17,88,59,37,30.42,30.22,6,1,10,0.10
2013-2-19,48,41,33,48,39,29,100,93,77,30.23,29.86,5,1,12,0.24
2013-2-20,55,42,29,36,25,17,96,55,24,30.11,29.99,11,2,20,0.24
2013-2-21,58,43,29,33,24,18,73,49,27,30.24,30.07,6,1,10,0.00
2013-2-22,46,38,36,40,37,28,100,96,49,30.31,30.11,8,2,14,0.42
2013-2-23,43,40,36,43,40,36,100,100,100,30.12,29.85,5,1,9,0.42
2013-2-24,65,51,42,51,39,28,100,70,29,30.05,29.85,9,2,15,0.72
2013-2-25,46,41,38,31,29,27,76,62,50,30.21,30.03,9,2,17,0.01
2013-2-26,52,41,34,52,39,29,100,95,66,30.09,29.54,10,2,20,1.01
2013-2-27,58,47,36,45,41,36,100,81,54,29.83,29.67,7,1,15,1.01
2013-2-28,52,44,36,39,33,29,98,68,42,29.87,29.72,1,0,10,0.00
2013-3-1,50,41,31,35,32,29,97,72,50,29.94,29.83,10,1,15,0.00
2013-3-2,47,40,33,41,34,25,100,80,66,29.94,29.81,6,0,15,0.01
2013-3-3,48,36,27,27,23,21,86,60,38,30.03,29.90,6,0,14,0.01
2013-3-4,54,40,25,29,22,18,82,52,25,30.17,30.01,4,0,11,0.00
2013-3-5,54,46,40,51,40,25,100,79,46,30.07,29.59,0,0,9,0.36
2013-3-6,52,42,35,45,32,25,100,68,42,30.10,29.59,16,4,31,0.36
2013-3-7,56,42,31,35,31,28,92,66,40,30.25,30.10,9,4,17,0.01
2013-3-8,58,44,31,32,28,25,82,55,29,30.34,30.16,11,5,22,0.00
2013-3-9,63,48,35,39,33,28,78,57,33,30.36,30.22,7,2,13,0.00
2013-3-10,46,43,42,37,36,36,79,76,67,30.28,30.26,0,0,0,0.00
2013-3-11,64,62,58,58,55,53,100,81,69,29.91,29.86,7,4,13,0.03
2013-3-12,72,61,49,65,52,32,100,78,34,29.95,29.75,12,4,16,0.03
2013-3-13,59,48,37,38,30,21,95,55,27,30.14,29.94,15,5,29,0.97
2013-3-14,55,42,30,27,22,19,66,47,27,30.28,30.12,10,4,19,0.00
2013-3-15,64,49,32,42,31,22,74,52,35,30.22,29.90,8,2,20,0.00
2013-3-16,78,66,56,48,44,40,61,47,31,29.90,29.70,12,5,30,0.00
2013-3-17,76,60,47,55,46,41,85,61,37,30.10,29.85,12,5,22,0.00
2013-3-18,47,43,40,44,42,40,100,99,85,30.14,29.85,10,5,18,0.68
2013-3-19,68,52,41,51,34,20,100,62,17,30.02,29.85,13,6,24,0.68
2013-3-20,57,48,42,30,20,15,56,34,22,30.12,29.78,7,3,16,0.01
2013-3-21,50,41,32,34,20,14,76,44,26,29.97,29.76,13,5,26,0.00
2013-3-22,54,39,25,30,21,15,77,50,28,30.10,29.95,11,2,16,0.00
2013-3-23,52,44,39,44,38,28,100,79,51,30.05,29.91,3,0,9,0.02
2013-3-24,43,41,38,43,41,38,100,100,99,29.94,29.58,13,5,25,0.02
2013-3-25,50,42,38,42,32,24,100,72,37,29.87,29.59,18,4,34,1.01
2013-3-26,49,40,30,31,28,26,90,63,44,30.16,29.87,11,3,20,0.06
2013-3-27,55,43,30,31,27,25,90,57,34,30.25,30.14,11,3,21,0.00
2013-3-28,58,45,32,28,25,23,76,47,28,30.30,30.15,11,3,20,0.00
2013-3-29,65,50,35,36,29,26,77,47,24,30.35,30.15,9,2,17,0.00
2013-3-30,66,55,46,51,46,37,100,74,47,30.22,30.06,7,2,11,0.17
2013-3-31,70,58,49,61,53,-100,100,88,60,30.07,29.80,10,3,20,0.17
2013-4-1,74,63,54,59,48,37,100,66,27,29.93,29.82,10,3,18,0.43
2013-4-2,64,54,41,43,38,29,95,57,32,30.14,29.93,9,2,15,0.15
2013-4-3,62,53,44,36,27,21,53,36,24,30.27,30.10,11,4,18,0.00
2013-4-4,52,43,38,42,35,24,100,79,37,30.28,29.95,12,6,20,0.93
2013-4-5,65,50,38,51,42,36,100,79,45,30.03,29.88,8,4,13,0.93
2013-4-6,68,57,45,44,38,35,83,53,31,30.23,30.03,9,2,16,0.01
2013-4-7,72,58,42,53,46,39,99,68,38,30.27,30.10,7,2,13,0.00
2013-4-8,79,66,53,60,56,52,100,72,42,30.17,30.03,9,2,19,0.00
2013-4-9,83,70,57,63,59,56,100,71,41,30.18,30.04,7,2,16,0.00
2013-4-10,85,73,61,65,61,56,100,70,42,30.09,29.92,8,3,16,0.00
2013-4-11,81,70,59,70,64,59,100,82,53,29.96,29.74,7,2,15,0.00
2013-4-12,82,71,63,72,60,42,100,75,28,29.78,29.61,10,4,25,0.36
2013-4-13,76,64,51,47,42,39,71,48,26,29.99,29.78,7,2,15,0.36
2013-4-14,78,64,51,54,44,39,81,51,28,30.07,29.97,6,1,13,0.00
2013-4-15,71,65,60,64,60,54,100,85,68,30.16,29.96,9,2,16,0.00
2013-4-16,78,67,58,65,62,58,100,84,53,30.26,30.15,5,1,9,0.00
2013-4-17,86,71,58,70,62,56,100,79,40,30.23,30.06,9,2,15,0.08
2013-4-18,81,70,62,68,63,59,100,82,48,30.15,29.97,6,2,12,0.08
2013-4-19,81,69,57,72,67,56,100,94,66,29.98,29.72,8,3,22,0.74
2013-4-20,65,56,46,56,41,32,100,62,33,30.23,29.85,9,3,17,0.74
2013-4-21,65,54,42,45,42,38,98,66,42,30.42,30.23,12,5,22,0.01
2013-4-22,66,54,40,43,36,27,90,56,24,30.42,30.20,13,5,20,0.00
2013-4-23,68,57,50,57,50,42,100,80,63,30.26,30.09,11,4,17,0.00
2013-4-24,76,62,51,61,56,51,100,83,51,30.15,29.97,7,2,14,0.00
2013-4-25,72,62,53,62,47,35,100,62,28,30.23,30.01,8,3,17,0.00
2013-4-26,73,61,48,47,38,32,69,45,24,30.40,30.23,10,3,18,0.00
2013-4-27,66,59,55,58,52,42,100,79,50,30.35,30.23,5,0,7,0.22
2013-4-28,61,57,54,61,57,54,100,100,100,30.23,30.05,8,2,12,0.22
2013-4-29,73,63,57,67,62,57,100,95,73,30.06,29.92,4,0,9,1.93
2013-4-30,72,64,59,66,62,59,100,95,73,30.14,29.96,10,4,19,0.27
2013-5-1,65,59,54,62,58,54,100,97,84,30.26,30.13,11,3,18,0.01
2013-5-2,64,59,57,63,59,57,100,99,94,30.28,30.19,10,5,16,0.02
2013-5-3,74,62,53,59,56,48,100,80,52,30.21,30.09,12,7,21,0.07
2013-5-4,69,58,49,57,51,47,100,82,54,30.13,29.99,14,8,24,0.00
2013-5-5,59,56,52,59,55,52,100,98,92,30.03,29.89,15,5,26,0.38
2013-5-6,83,65,55,71,60,52,100,84,44,29.89,29.80,10,2,21,0.38
2013-5-7,80,62,48,59,54,48,100,78,41,29.93,29.83,8,2,14,0.87
2013-5-8,74,63,52,67,59,52,100,89,56,29.98,29.90,8,1,13,0.85
2013-5-9,83,68,56,63,58,52,100,75,37,30.06,29.97,7,1,12,0.04
2013-5-10,84,71,59,67,60,-100,100,74,45,30.04,29.93,6,1,14,0.00
2013-5-11,82,72,63,69,64,60,100,77,52,29.94,29.77,7,1,18,0.14
2013-5-12,75,65,57,63,51,-100,100,67,37,30.00,29.80,9,3,19,0.17
2013-5-13,76,61,46,47,39,33,82,47,24,30.14,30.00,8,2,19,0.04
2013-5-14,82,62,42,48,42,35,95,53,24,30.24,30.05,7,1,16,0.00
2013-5-15,97,73,54,64,57,48,95,61,28,30.06,29.89,7,1,12,0.00
2013-5-16,93,70,62,65,39,-100,97,64,27,29.99,29.89,6,2,10,0.00